This is the latest recevied weather packets stored in our database for station/object EA1IWF-10. If no packets are shown the sender has not sent any weather packets the latest 10 day(s).
| Time | Temp. | Humidity | Pressure | Rain* | Wind** | Luminosity | Snow |
|---|---|---|---|---|---|---|---|
| 1777562755 | 26.67° C | 34% | 1020.4 hPa | - | - | - | - |
| 1777561854 | 26.11° C | 34% | 1020.3 hPa | - | - | - | - |
| 1777560953 | 31.67° C | 27% | 1020.4 hPa | - | - | - | - |
| 1777560052 | 31.67° C | 28% | 1020.6 hPa | - | - | - | - |
| 1777559151 | 24.44° C | 38% | 1020.6 hPa | - | - | - | - |
| 1777558251 | 25.56° C | 37% | 1020.7 hPa | - | - | - | - |
| 1777557350 | 23.33° C | 41% | 1020.8 hPa | - | - | - | - |
| 1777556449 | 22.78° C | 43% | 1020.7 hPa | - | - | - | - |
| 1777555548 | 21.67° C | 46% | 1020.8 hPa | - | - | - | - |
| 1777554647 | 21.67° C | 46% | 1020.7 hPa | - | - | - | - |
| 1777409326 | 17.22° C | 64% | 1013.5 hPa | - | - | - | - |
| 1777408425 | 17.78° C | 62% | 1013.5 hPa | - | - | - | - |
| 1777407524 | 17.78° C | 62% | 1013.3 hPa | - | - | - | - |
| 1777406623 | 17.78° C | 62% | 1013.4 hPa | - | - | - | - |
| 1777405723 | 18.33° C | 60% | 1013.4 hPa | - | - | - | - |
| 1777404822 | 18.33° C | 58% | 1013.6 hPa | - | - | - | - |
| 1777403921 | 18.33° C | 57% | 1013.4 hPa | - | - | - | - |
| 1777403020 | 18.89° C | 57% | 1013.4 hPa | - | - | - | - |
| 1777402119 | 19.44° C | 56% | 1013.2 hPa | - | - | - | - |
| 1777401218 | 19.44° C | 57% | 1013.2 hPa | - | - | - | - |
| 1777400317 | 19.44° C | 55% | 1013.2 hPa | - | - | - | - |
| 1777399416 | 20.56° C | 51% | 1013.1 hPa | - | - | - | - |
| 1777398516 | 21.11° C | 47% | 1013.2 hPa | - | - | - | - |
| 1777397615 | 25.56° C | 33% | 1012.5 hPa | - | - | - | - |
| 1777396714 | 26.11° C | 33% | 1012.3 hPa | - | - | - | - |
* Rain since midnight (hover to see other rain measurements)
** Current wind speed in m/s (hover to see current wind gust speed)